In Rescue
 
Open Full Screen Window  High Contrast Mode
Wind Gusting 00 knots
04
May 20, 2019 1:37 PM CDT
Weather Information
Wind Direction
  020 °
Wind Speed
  04 kt (5 mph)
Wind Gust
  00 kt (0 mph)
Altimeter
30.14 in
Visibility
10 SM
Temperature
14° C
57° F
Dewpoint
02° C
36° F
Humidity
44%
1hr Rain Fall
00.00 in.
24hr Rain Fall
00.00 in.
Sky Condition
Clear
VFR

METAR KD39 201837Z AUTO 02004KT 10SM CLR 14/02 A3014 RMK AO2 T01420016

FAA Disclaimer: The data displayed is for advisory purposes only and is not to be used for flight planning or operations.